Time;durP1;ratioP1;P1;durP2;ratioP2;P2;SDS_P1;SDS_P2;PMS_P1;PMS_P2;Temp;Humidity;BMP_temperature;BMP_pressure;BME280_temperature;BME280_humidity;BME280_pressure;Samples;Min_cycle;Max_cycle;Signal;HPM_P1;HPM_P2
2023/05/29 00:00:07;;;;;;;;;;;;;;;22.40;59.71;98407.09;2087913;28;19924;-46
2023/05/29 00:01:08;;;;;;;;;;;;;;;22.42;59.74;98405.00;2086384;28;19978;-48
2023/05/29 00:02:10;;;;;;;;;;;;;;;22.42;59.49;98399.59;2089990;28;19928;-46
2023/05/29 00:03:10;;;;;;;;;;;;;;;22.41;59.54;98401.47;2088698;28;19930;-46
2023/05/29 00:04:12;;;;;;;;;;;;;;;22.41;59.55;98404.19;2088202;28;20005;-46
2023/05/29 00:05:13;;;;;;;;;;;;;;;22.40;59.48;98402.53;2084477;28;19932;-46
2023/05/29 00:06:14;;;;;;;;;;;;;;;22.41;59.65;98404.19;2084390;28;20293;-45
2023/05/29 00:07:16;;;;;;;;;;;;;;;22.40;59.58;98405.25;2087882;28;19986;-46
2023/05/29 00:08:17;;;;;;;;;;;;;;;22.42;59.62;98405.00;2083247;28;19928;-45
2023/05/29 00:09:18;;;;;;;;;;;;;;;22.41;59.55;98404.19;2084709;28;20463;-45
2023/05/29 00:10:20;;;;;;;;;;;;;;;22.40;59.73;98402.53;2086709;28;19957;-46
2023/05/29 00:11:20;;;;;;;;;;;;;;;22.40;59.65;98402.53;2087962;28;20391;-47
2023/05/29 00:12:22;;;;;;;;;;;;;;;22.40;59.65;98397.13;2089154;28;19924;-45
2023/05/29 00:13:24;;;;;;;;;;;;;;;22.40;59.48;98410.66;2087697;28;19924;-45
2023/05/29 00:14:26;;;;;;;;;;;;;;;22.41;59.67;98408.75;2085853;28;19932;-45
2023/05/29 00:15:26;;;;;;;;;;;;;;;22.40;59.73;98401.69;2084120;28;20491;-47
2023/05/29 00:16:29;;;;;;;;;;;;;;;22.38;59.82;98396.53;2075678;28;19928;-46
2023/05/29 00:17:31;;;;;;;;;;;;;;;22.39;59.64;98395.47;2078482;28;20001;-48
2023/05/29 00:18:34;;;;;;;;;;;;;;;22.40;59.64;98402.53;2084044;28;20651;-50
2023/05/29 00:19:35;;;;;;;;;;;;;;;22.40;59.48;98402.53;2088476;28;19920;-47
2023/05/29 00:20:37;;;;;;;;;;;;;;;22.41;59.55;98401.47;2083603;28;20863;-50
2023/05/29 00:21:38;;;;;;;;;;;;;;;22.40;59.63;98401.69;2078870;28;20574;-49
2023/05/29 00:22:39;;;;;;;;;;;;;;;22.40;59.66;98396.28;2083356;28;19920;-47
2023/05/29 00:23:40;;;;;;;;;;;;;;;22.41;59.65;98397.97;2084472;28;20013;-50
2023/05/29 00:24:42;;;;;;;;;;;;;;;22.40;59.64;98399.84;2086104;28;20440;-46
2023/05/29 00:25:42;;;;;;;;;;;;;;;22.40;59.61;98391.72;2082681;28;20615;-50
2023/05/29 00:26:44;;;;;;;;;;;;;;;22.39;59.65;98395.47;2088055;28;19920;-46
2023/05/29 00:27:44;;;;;;;;;;;;;;;22.40;59.62;98390.88;2088817;28;19963;-50
2023/05/29 00:28:47;;;;;;;;;;;;;;;22.39;59.58;98390.06;2088251;28;19947;-50
2023/05/29 00:29:48;;;;;;;;;;;;;;;22.38;59.66;98391.13;2082341;28;20015;-46
2023/05/29 00:30:49;;;;;;;;;;;;;;;22.39;59.67;98395.47;2085529;28;19943;-49
2023/05/29 00:31:53;;;;;;;;;;;;;;;22.39;59.84;98403.59;2082401;28;19977;-48
2023/05/29 00:32:54;;;;;;;;;;;;;;;22.40;59.56;98401.69;2080737;28;20051;-49
2023/05/29 00:33:55;;;;;;;;;;;;;;;22.39;59.67;98400.88;2081762;28;20540;-46
2023/05/29 00:34:56;;;;;;;;;;;;;;;22.38;59.65;98404.66;2086495;28;19921;-49
2023/05/29 00:35:57;;;;;;;;;;;;;;;22.38;59.83;98399.25;2085297;28;19924;-48
2023/05/29 00:36:58;;;;;;;;;;;;;;;22.38;59.85;98399.25;2086378;28;20011;-51
2023/05/29 00:37:59;;;;;;;;;;;;;;;22.39;59.56;98398.19;2083672;28;20487;-50
2023/05/29 00:39:00;;;;;;;;;;;;;;;22.39;59.68;98400.88;2085677;28;19924;-50
2023/05/29 00:40:00;;;;;;;;;;;;;;;22.38;59.79;98396.53;2084134;28;20742;-49
2023/05/29 00:41:02;;;;;;;;;;;;;;;22.38;59.71;98404.66;2087420;28;19978;-46
2023/05/29 00:42:03;;;;;;;;;;;;;;;22.39;59.62;98403.59;2084695;28;20133;-48
2023/05/29 00:43:04;;;;;;;;;;;;;;;22.37;59.85;98405.72;2086516;28;19928;-49
2023/05/29 00:44:06;;;;;;;;;;;;;;;22.37;59.73;98404.88;2083154;28;20330;-48
2023/05/29 00:45:08;;;;;;;;;;;;;;;22.38;59.75;98401.13;2085458;28;20455;-47
2023/05/29 00:46:09;;;;;;;;;;;;;;;22.37;59.86;98397.63;2084999;28;19973;-47
2023/05/29 00:47:11;;;;;;;;;;;;;;;22.37;59.75;98400.31;2082286;28;20188;-46
2023/05/29 00:48:13;;;;;;;;;;;;;;;22.36;59.66;98406.75;2085295;28;20375;-48
2023/05/29 00:49:14;;;;;;;;;;;;;;;22.37;59.77;98408.41;2085557;28;19920;-50
2023/05/29 00:50:15;;;;;;;;;;;;;;;22.37;59.61;98402.16;2087171;28;19921;-50
2023/05/29 00:51:16;;;;;;;;;;;;;;;22.37;59.51;98403.00;2087834;28;20046;-51
2023/05/29 00:52:18;;;;;;;;;;;;;;;22.37;59.59;98403.00;2088703;28;20058;-49
2023/05/29 00:53:19;;;;;;;;;;;;;;;22.37;59.82;98411.13;2085731;28;20042;-47
2023/05/29 00:54:22;;;;;;;;;;;;;;;22.36;59.57;98405.94;2085076;28;19925;-50
2023/05/29 00:55:23;;;;;;;;;;;;;;;22.37;59.74;98411.13;2084232;28;19924;-46
2023/05/29 00:56:25;;;;;;;;;;;;;;;22.37;59.65;98408.41;2080317;28;20531;-46
2023/05/29 00:57:25;;;;;;;;;;;;;;;22.37;59.62;98408.41;2082600;28;19928;-50
2023/05/29 00:58:27;;;;;;;;;;;;;;;22.35;59.67;98405.13;2077863;28;19925;-52
2023/05/29 00:59:29;;;;;;;;;;;;;;;22.37;59.75;98403.00;2083450;28;19982;-49
2023/05/29 01:00:32;;;;;;;;;;;;;;;22.36;59.63;98401.34;2086132;28;19924;-48
2023/05/29 01:01:33;;;;;;;;;;;;;;;22.36;59.68;98411.34;2086081;28;19920;-48
2023/05/29 01:02:36;;;;;;;;;;;;;;;22.36;59.74;98403.22;2085295;28;20012;-46
2023/05/29 01:03:36;;;;;;;;;;;;;;;22.36;59.70;98406.75;2076696;28;19936;-52
2023/05/29 01:04:38;;;;;;;;;;;;;;;22.35;59.78;98410.53;2081016;28;20024;-50
2023/05/29 01:05:38;;;;;;;;;;;;;;;22.37;59.53;98404.88;2080806;28;19990;-46
2023/05/29 01:06:41;;;;;;;;;;;;;;;22.37;59.67;98400.31;2086512;28;19925;-52
2023/05/29 01:07:42;;;;;;;;;;;;;;;22.36;60.23;98401.34;2079528;28;21348;-49
2023/05/29 01:08:43;;;;;;;;;;;;;;;22.35;59.91;98401.59;2086061;28;19920;-49
2023/05/29 01:09:43;;;;;;;;;;;;;;;22.36;59.90;98401.34;2087513;28;19973;-49
2023/05/29 01:10:45;;;;;;;;;;;;;;;22.37;59.64;98408.41;2086424;28;20329;-52
2023/05/29 01:11:50;;;;;;;;;;;;;;;22.36;59.82;98401.34;2085573;28;19924;-47
2023/05/29 01:12:57;;;;;;;;;;;;;;;22.37;59.78;98403.00;2085549;28;19932;-50
2023/05/29 01:14:00;;;;;;;;;;;;;;;22.37;59.60;98407.56;2080787;28;19921;-50
2023/05/29 01:15:20;;;;;;;;;;;;;;;22.36;59.95;98401.34;2084312;28;20015;-48
2023/05/29 01:16:26;;;;;;;;;;;;;;;22.36;59.63;98404.06;2073130;28;20492;-47
2023/05/29 01:17:34;;;;;;;;;;;;;;;22.35;60.05;98398.91;2079546;28;20219;-52
2023/05/29 01:18:39;;;;;;;;;;;;;;;22.35;59.85;98399.72;2082142;28;19921;-48
2023/05/29 01:19:49;;;;;;;;;;;;;;;22.36;59.67;98404.06;2082791;28;19929;-47
2023/05/29 01:20:52;;;;;;;;;;;;;;;22.35;59.76;98399.72;2085471;28;20379;-49
2023/05/29 01:22:01;;;;;;;;;;;;;;;22.36;59.78;98405.94;2081667;28;19927;-47
2023/05/29 01:23:07;;;;;;;;;;;;;;;22.36;59.83;98401.34;2087698;28;19921;-46
2023/05/29 01:24:15;;;;;;;;;;;;;;;22.37;59.66;98405.72;2087216;28;19924;-46
2023/05/29 01:25:18;;;;;;;;;;;;;;;22.36;59.93;98401.34;2076841;28;20011;-50
2023/05/29 01:26:31;;;;;;;;;;;;;;;22.36;59.70;98395.13;2081827;28;19970;-50
2023/05/29 01:27:33;;;;;;;;;;;;;;;22.36;59.74;98401.34;2086048;28;19929;-45
2023/05/29 01:28:38;;;;;;;;;;;;;;;22.36;59.71;98409.47;2084560;28;19925;-50
2023/05/29 01:29:40;;;;;;;;;;;;;;;22.37;59.84;98402.16;2085760;28;19974;-46
2023/05/29 01:30:42;;;;;;;;;;;;;;;22.36;59.92;98395.13;2086796;28;20795;-48
2023/05/29 01:31:44;;;;;;;;;;;;;;;22.36;59.85;98395.94;2088239;28;19928;-49
2023/05/29 01:32:45;;;;;;;;;;;;;;;22.36;60.13;98398.66;2088033;28;19920;-46
2023/05/29 01:33:52;;;;;;;;;;;;;;;22.36;59.94;98404.06;2077137;28;20002;-47
2023/05/29 01:34:53;;;;;;;;;;;;;;;22.36;59.91;98401.34;2081777;28;19924;-46
2023/05/29 01:35:54;;;;;;;;;;;;;;;22.35;59.80;98399.72;2084425;28;20022;-47
2023/05/29 01:36:55;;;;;;;;;;;;;;;22.36;59.99;98397.81;2082406;28;19928;-50
2023/05/29 01:37:56;;;;;;;;;;;;;;;22.36;59.86;98395.13;2086341;28;19920;-47
2023/05/29 01:38:58;;;;;;;;;;;;;;;22.36;59.75;98401.34;2086510;28;19920;-50
2023/05/29 01:40:00;;;;;;;;;;;;;;;22.36;59.95;98395.13;2086149;28;20329;-51
2023/05/29 01:41:00;;;;;;;;;;;;;;;22.36;59.87;98389.72;2086203;28;20531;-48
2023/05/29 01:42:04;;;;;;;;;;;;;;;22.35;59.98;98391.59;2078224;28;19959;-48
2023/05/29 01:43:05;;;;;;;;;;;;;;;22.36;59.86;98390.53;2079108;28;19932;-50
2023/05/29 01:44:09;;;;;;;;;;;;;;;22.36;59.92;98387.03;2083910;28;19920;-51
2023/05/29 01:45:11;;;;;;;;;;;;;;;22.36;59.96;98393.25;2083823;28;20715;-46
2023/05/29 01:46:13;;;;;;;;;;;;;;;22.35;59.75;98388.91;2087696;28;19978;-49
2023/05/29 01:47:14;;;;;;;;;;;;;;;22.36;59.92;98390.53;2081498;28;19928;-47
2023/05/29 01:48:16;;;;;;;;;;;;;;;22.36;59.79;98390.53;2088321;28;19920;-50
2023/05/29 01:49:16;;;;;;;;;;;;;;;22.36;60.00;98385.13;2085838;28;19928;-46
2023/05/29 01:50:19;;;;;;;;;;;;;;;22.34;60.00;98384.53;2087003;28;19949;-46
2023/05/29 01:51:19;;;;;;;;;;;;;;;22.35;60.03;98385.38;2087625;28;20021;-48
2023/05/29 01:52:21;;;;;;;;;;;;;;;22.34;60.00;98389.94;2087650;28;20322;-46
2023/05/29 01:53:22;;;;;;;;;;;;;;;22.35;59.87;98388.09;2085989;28;20819;-47
2023/05/29 01:54:24;;;;;;;;;;;;;;;22.35;59.99;98388.91;2086651;28;19925;-47
2023/05/29 01:55:24;;;;;;;;;;;;;;;22.35;60.02;98385.38;2079747;28;19928;-49
2023/05/29 01:56:27;;;;;;;;;;;;;;;22.35;59.99;98383.50;2086844;28;20186;-49
2023/05/29 01:57:29;;;;;;;;;;;;;;;22.35;60.09;98382.69;2082084;28;20283;-46
2023/05/29 01:58:31;;;;;;;;;;;;;;;22.34;60.13;98386.44;2085599;28;19920;-48
2023/05/29 01:59:32;;;;;;;;;;;;;;;22.34;60.01;98381.84;2081244;28;20086;-46
2023/05/29 02:00:34;;;;;;;;;;;;;;;22.34;59.92;98387.25;2088899;28;20123;-49
2023/05/29 02:01:34;;;;;;;;;;;;;;;22.33;59.83;98384.78;2089261;28;19928;-50
2023/05/29 02:02:37;;;;;;;;;;;;;;;22.34;59.92;98376.44;2087832;28;19928;-47
2023/05/29 02:03:37;;;;;;;;;;;;;;;22.33;60.01;98380.19;2078755;28;19921;-47
2023/05/29 02:04:39;;;;;;;;;;;;;;;22.33;60.30;98380.19;2085574;28;19966;-52
2023/05/29 02:05:39;;;;;;;;;;;;;;;22.32;60.18;98375.88;2082730;28;19940;-50
2023/05/29 02:06:41;;;;;;;;;;;;;;;22.32;60.13;98378.56;2088013;28;20375;-47
2023/05/29 02:07:41;;;;;;;;;;;;;;;22.33;60.27;98382.09;2088699;28;20290;-49
2023/05/29 02:08:43;;;;;;;;;;;;;;;22.32;60.13;98381.28;2089499;28;19960;-46
2023/05/29 02:09:43;;;;;;;;;;;;;;;22.32;60.26;98377.75;2082499;28;19953;-51
2023/05/29 02:10:44;;;;;;;;;;;;;;;22.30;60.36;98381.50;2084990;28;19924;-46
2023/05/29 02:11:45;;;;;;;;;;;;;;;22.30;60.16;98378.78;2079028;28;19929;-48
2023/05/29 02:12:48;;;;;;;;;;;;;;;22.33;60.12;98388.31;2086466;28;19974;-50
2023/05/29 02:13:48;;;;;;;;;;;;;;;22.31;60.03;98385.00;2081649;28;19925;-48
2023/05/29 02:14:50;;;;;;;;;;;;;;;22.32;60.27;98375.88;2084553;28;19990;-50
2023/05/29 02:15:51;;;;;;;;;;;;;;;22.32;60.07;98383.16;2083430;28;20567;-46
2023/05/29 02:16:52;;;;;;;;;;;;;;;22.31;60.12;98382.31;2087665;28;19928;-49
2023/05/29 02:17:53;;;;;;;;;;;;;;;22.30;60.23;98375.28;2083558;28;19928;-52
2023/05/29 02:18:54;;;;;;;;;;;;;;;22.30;60.30;98375.28;2081354;28;22468;-49
2023/05/29 02:19:55;;;;;;;;;;;;;;;22.29;60.37;98374.44;2079039;28;20487;-46
2023/05/29 02:20:56;;;;;;;;;;;;;;;22.29;60.14;98368.22;2081923;28;19990;-48
2023/05/29 02:21:56;;;;;;;;;;;;;;;22.28;60.27;98372.78;2079940;28;19953;-48
2023/05/29 02:22:58;;;;;;;;;;;;;;;22.29;60.33;98370.94;2085132;28;19932;-48
2023/05/29 02:23:59;;;;;;;;;;;;;;;22.28;60.52;98369.28;2079225;28;19974;-49
2023/05/29 02:25:00;;;;;;;;;;;;;;;22.28;60.65;98374.69;2085150;28;20613;-49
2023/05/29 02:26:00;;;;;;;;;;;;;;;22.28;60.38;98371.97;2081818;28;19975;-46
2023/05/29 02:27:03;;;;;;;;;;;;;;;22.27;60.30;98365.75;2084857;28;19928;-50
2023/05/29 02:28:04;;;;;;;;;;;;;;;22.30;60.14;98369.88;2085417;28;19932;-50
2023/05/29 02:29:06;;;;;;;;;;;;;;;22.28;60.17;98369.28;2080152;28;20006;-50
2023/05/29 02:30:08;;;;;;;;;;;;;;;22.29;60.26;98373.63;2083976;28;19928;-48
2023/05/29 02:31:10;;;;;;;;;;;;;;;22.30;60.24;98369.88;2083156;28;19968;-50
2023/05/29 02:32:10;;;;;;;;;;;;;;;22.32;60.28;98375.06;2085899;28;20026;-48
2023/05/29 02:33:11;;;;;;;;;;;;;;;22.30;60.19;98373.38;2085477;28;20445;-47
2023/05/29 02:34:12;;;;;;;;;;;;;;;22.29;60.22;98368.22;2088169;28;19973;-50
2023/05/29 02:35:14;;;;;;;;;;;;;;;22.28;60.25;98371.97;2083156;28;20343;-49
2023/05/29 02:36:16;;;;;;;;;;;;;;;22.27;60.23;98373.84;2084214;28;19928;-48
2023/05/29 02:37:17;;;;;;;;;;;;;;;22.27;60.12;98367.63;2085142;28;21253;-49
2023/05/29 02:38:19;;;;;;;;;;;;;;;22.29;60.25;98370.94;2083359;28;19924;-47
2023/05/29 02:39:20;;;;;;;;;;;;;;;22.27;60.52;98370.34;2084382;28;19925;-50
2023/05/29 02:40:21;;;;;;;;;;;;;;;22.28;60.39;98369.28;2087767;28;19977;-50
2023/05/29 02:41:22;;;;;;;;;;;;;;;22.28;60.23;98371.97;2084724;28;19924;-50
2023/05/29 02:42:22;;;;;;;;;;;;;;;22.27;60.16;98373.84;2078515;28;19936;-46
2023/05/29 02:43:25;;;;;;;;;;;;;;;22.29;60.26;98373.63;2074886;28;20971;-50
2023/05/29 02:44:26;;;;;;;;;;;;;;;22.29;60.20;98370.94;2082848;28;19959;-47
2023/05/29 02:45:27;;;;;;;;;;;;;;;22.29;60.30;98379.03;2085577;28;19932;-50
2023/05/29 02:46:27;;;;;;;;;;;;;;;22.28;60.35;98385.47;2079855;28;19923;-49
2023/05/29 02:47:29;;;;;;;;;;;;;;;22.27;60.33;98381.97;2081598;28;19928;-48
2023/05/29 02:48:30;;;;;;;;;;;;;;;22.26;60.36;98382.22;2080235;28;19924;-47
2023/05/29 02:49:31;;;;;;;;;;;;;;;22.27;60.38;98381.16;2080130;28;19921;-52
2023/05/29 02:50:32;;;;;;;;;;;;;;;22.26;60.53;98374.09;2081161;28;19958;-49
2023/05/29 02:51:33;;;;;;;;;;;;;;;22.27;60.44;98386.56;2081293;28;19964;-48
2023/05/29 02:52:34;;;;;;;;;;;;;;;22.29;60.29;98384.44;2079243;28;20010;-50
2023/05/29 02:53:35;;;;;;;;;;;;;;;22.28;60.38;98378.19;2084534;28;19996;-50
2023/05/29 02:54:36;;;;;;;;;;;;;;;22.27;60.61;98381.16;2084001;28;19943;-48
2023/05/29 02:55:37;;;;;;;;;;;;;;;22.26;60.63;98374.09;2085130;28;19920;-46
2023/05/29 02:56:38;;;;;;;;;;;;;;;22.26;60.44;98374.94;2081217;28;19925;-47
2023/05/29 02:57:40;;;;;;;;;;;;;;;22.26;60.40;98379.50;2082433;28;19931;-46
2023/05/29 02:58:42;;;;;;;;;;;;;;;22.26;60.44;98379.50;2081981;28;19936;-47
2023/05/29 02:59:45;;;;;;;;;;;;;;;22.25;60.66;98378.66;2077735;28;19952;-47
2023/05/29 03:00:46;;;;;;;;;;;;;;;22.27;60.40;98381.16;2082550;28;19973;-50
2023/05/29 03:01:48;;;;;;;;;;;;;;;22.26;60.52;98379.50;2080559;28;19947;-49
2023/05/29 03:02:49;;;;;;;;;;;;;;;22.25;60.60;98380.53;2076336;28;19950;-48
2023/05/29 03:03:50;;;;;;;;;;;;;;;22.24;60.36;98377.03;2069981;28;19935;-46
2023/05/29 03:04:52;;;;;;;;;;;;;;;22.27;60.38;98383.84;2075043;28;20743;-49
2023/05/29 03:05:53;;;;;;;;;;;;;;;22.27;60.38;98383.84;2078427;28;20341;-49
2023/05/29 03:06:54;;;;;;;;;;;;;;;22.26;60.58;98382.22;2082126;28;20010;-51
2023/05/29 03:07:55;;;;;;;;;;;;;;;22.26;60.67;98384.91;2086484;28;19935;-47
2023/05/29 03:08:56;;;;;;;;;;;;;;;22.26;60.59;98390.31;2086420;28;19973;-47
2023/05/29 03:09:57;;;;;;;;;;;;;;;22.25;60.55;98388.66;2086549;28;19932;-49
2023/05/29 03:10:58;;;;;;;;;;;;;;;22.26;60.41;98390.31;2083620;28;20007;-48
2023/05/29 03:12:01;;;;;;;;;;;;;;;22.25;60.65;98384.06;2084896;28;20027;-49
2023/05/29 03:13:01;;;;;;;;;;;;;;;22.25;60.59;98384.06;2084491;28;20395;-50
2023/05/29 03:14:04;;;;;;;;;;;;;;;22.26;60.54;98390.31;2083536;28;20027;-49
2023/05/29 03:15:05;;;;;;;;;;;;;;;22.25;60.46;98388.66;2084690;28;19925;-52
2023/05/29 03:16:08;;;;;;;;;;;;;;;22.26;60.57;98384.91;2087308;28;20015;-50
2023/05/29 03:17:08;;;;;;;;;;;;;;;22.25;60.46;98383.25;2085917;28;19936;-49
2023/05/29 03:18:09;;;;;;;;;;;;;;;22.23;60.54;98378.09;2086676;28;20019;-49
2023/05/29 03:19:10;;;;;;;;;;;;;;;22.24;60.64;98387.00;2083358;28;19924;-50
2023/05/29 03:20:13;;;;;;;;;;;;;;;22.23;60.60;98382.66;2086017;28;19966;-51
2023/05/29 03:21:13;;;;;;;;;;;;;;;22.24;60.59;98381.63;2086831;28;20357;-49
2023/05/29 03:22:15;;;;;;;;;;;;;;;22.25;60.53;98377.84;2088028;28;19928;-52
2023/05/29 03:23:15;;;;;;;;;;;;;;;22.24;60.49;98382.44;2085621;28;19969;-51
2023/05/29 03:24:17;;;;;;;;;;;;;;;22.24;60.66;98381.63;2088255;28;20332;-49
2023/05/29 03:25:18;;;;;;;;;;;;;;;22.24;60.49;98381.63;2087657;28;19924;-49
2023/05/29 03:26:21;;;;;;;;;;;;;;;22.23;60.62;98380.81;2084673;28;19924;-51
2023/05/29 03:27:21;;;;;;;;;;;;;;;22.23;60.62;98383.50;2077427;28;19928;-51
2023/05/29 03:28:23;;;;;;;;;;;;;;;22.23;60.50;98385.34;2082458;28;20017;-50
2023/05/29 03:29:25;;;;;;;;;;;;;;;22.23;60.62;98380.81;2082098;28;19924;-48
2023/05/29 03:30:26;;;;;;;;;;;;;;;22.23;60.62;98386.19;2084352;28;21306;-49
2023/05/29 03:31:26;;;;;;;;;;;;;;;22.24;60.55;98381.63;2082821;28;19928;-49
2023/05/29 03:32:28;;;;;;;;;;;;;;;22.24;60.59;98387.84;2083108;28;19928;-48
2023/05/29 03:33:28;;;;;;;;;;;;;;;22.23;60.64;98388.91;2088303;28;19924;-47
2023/05/29 03:34:30;;;;;;;;;;;;;;;22.23;60.73;98385.34;2080419;28;19982;-47
2023/05/29 03:35:30;;;;;;;;;;;;;;;22.23;60.53;98390.75;2086491;28;19928;-46
2023/05/29 03:36:32;;;;;;;;;;;;;;;22.23;60.70;98379.94;2084542;28;19951;-48
2023/05/29 03:37:32;;;;;;;;;;;;;;;22.23;60.67;98390.75;2087373;28;20473;-50
2023/05/29 03:38:34;;;;;;;;;;;;;;;22.22;60.80;98387.25;2088267;28;20004;-49
2023/05/29 03:39:34;;;;;;;;;;;;;;;22.23;60.73;98380.81;2088234;28;20889;-48
2023/05/29 03:40:36;;;;;;;;;;;;;;;22.23;60.70;98380.81;2086351;28;19932;-48
2023/05/29 03:41:36;;;;;;;;;;;;;;;22.23;60.66;98379.94;2088296;28;20520;-48
2023/05/29 03:42:38;;;;;;;;;;;;;;;22.23;60.77;98385.34;2084154;28;19928;-47
2023/05/29 03:43:38;;;;;;;;;;;;;;;22.22;60.61;98383.72;2088410;28;19924;-50
2023/05/29 03:44:41;;;;;;;;;;;;;;;22.23;60.55;98385.34;2086172;28;19920;-46
2023/05/29 03:45:41;;;;;;;;;;;;;;;22.22;60.60;98384.53;2087678;28;21567;-47
2023/05/29 03:46:43;;;;;;;;;;;;;;;22.21;60.58;98382.91;2087901;28;20005;-50
2023/05/29 03:47:43;;;;;;;;;;;;;;;22.23;60.47;98388.06;2091819;28;20371;-50
2023/05/29 03:48:45;;;;;;;;;;;;;;;22.22;60.64;98379.13;2088089;28;19977;-47
2023/05/29 03:49:45;;;;;;;;;;;;;;;22.23;60.66;98382.66;2088506;28;20458;-45
2023/05/29 03:50:47;;;;;;;;;;;;;;;22.22;60.60;98387.25;2082386;28;19965;-48
2023/05/29 03:51:47;;;;;;;;;;;;;;;22.23;60.67;98382.66;2083077;28;19924;-49
2023/05/29 03:52:49;;;;;;;;;;;;;;;22.21;60.65;98384.78;2087164;28;20352;-46
2023/05/29 03:53:49;;;;;;;;;;;;;;;22.22;60.64;98381.03;2084918;28;19925;-46
2023/05/29 03:54:51;;;;;;;;;;;;;;;22.21;60.54;98379.38;2082807;28;19925;-45
2023/05/29 03:55:51;;;;;;;;;;;;;;;22.21;60.83;98382.91;2086087;28;19955;-46
2023/05/29 03:56:53;;;;;;;;;;;;;;;22.21;60.60;98390.19;2086201;28;19920;-47
2023/05/29 03:57:53;;;;;;;;;;;;;;;22.21;60.78;98382.09;2086475;28;20015;-50
2023/05/29 03:58:55;;;;;;;;;;;;;;;22.20;60.59;98381.22;2083133;28;19936;-46
2023/05/29 03:59:56;;;;;;;;;;;;;;;22.20;60.81;98378.53;2089330;28;19928;-49
2023/05/29 04:00:58;;;;;;;;;;;;;;;22.20;60.75;98391.22;2089384;28;19947;-47
2023/05/29 04:01:58;;;;;;;;;;;;;;;22.21;60.64;98384.78;2084262;28;20513;-46
2023/05/29 04:03:00;;;;;;;;;;;;;;;22.21;60.70;98391.00;2085918;28;19932;-48
2023/05/29 04:04:00;;;;;;;;;;;;;;;22.22;60.60;98394.53;2085681;28;19970;-46
2023/05/29 04:05:02;;;;;;;;;;;;;;;22.20;60.57;98385.81;2085368;28;19981;-50
2023/05/29 04:06:02;;;;;;;;;;;;;;;22.22;60.63;98389.13;2090296;28;19932;-45
2023/05/29 04:07:04;;;;;;;;;;;;;;;22.21;60.58;98390.19;2085746;28;19940;-45
2023/05/29 04:08:05;;;;;;;;;;;;;;;22.20;60.62;98389.34;2090175;28;19921;-48
2023/05/29 04:09:08;;;;;;;;;;;;;;;22.19;60.54;98390.41;2086190;28;19931;-45
2023/05/29 04:10:09;;;;;;;;;;;;;;;22.20;60.64;98391.22;2087636;28;19928;-46
2023/05/29 04:11:11;;;;;;;;;;;;;;;22.20;60.55;98391.22;2079034;28;19924;-45
2023/05/29 04:12:13;;;;;;;;;;;;;;;22.20;60.66;98399.31;2086735;28;19921;-47
2023/05/29 04:13:14;;;;;;;;;;;;;;;22.21;60.58;98396.41;2085244;28;19936;-48
2023/05/29 04:14:15;;;;;;;;;;;;;;;22.21;60.60;98398.28;2082757;28;19978;-47
2023/05/29 04:15:18;;;;;;;;;;;;;;;22.21;60.65;98403.69;2084458;28;19924;-47
2023/05/29 04:16:18;;;;;;;;;;;;;;;22.20;60.72;98399.31;2085542;28;19930;-47
2023/05/29 04:17:20;;;;;;;;;;;;;;;22.20;60.67;98404.72;2081991;28;20658;-46
2023/05/29 04:18:20;;;;;;;;;;;;;;;22.20;60.74;98404.72;2083512;28;19965;-46
2023/05/29 04:19:21;;;;;;;;;;;;;;;22.19;60.64;98403.09;2083622;28;21659;-47
2023/05/29 04:20:22;;;;;;;;;;;;;;;22.19;60.69;98406.63;2084885;28;19924;-47
2023/05/29 04:21:23;;;;;;;;;;;;;;;22.19;60.63;98401.22;2086132;28;20361;-45
2023/05/29 04:22:24;;;;;;;;;;;;;;;22.19;60.71;98403.09;2087426;28;19977;-46
2023/05/29 04:23:25;;;;;;;;;;;;;;;22.17;60.77;98402.47;2085710;28;20073;-46
2023/05/29 04:24:26;;;;;;;;;;;;;;;22.21;60.81;98409.09;2090581;28;19936;-46
2023/05/29 04:25:27;;;;;;;;;;;;;;;22.19;60.69;98412.00;2084475;28;19929;-46
2023/05/29 04:26:28;;;;;;;;;;;;;;;22.20;60.71;98407.44;2082397;28;19930;-47
2023/05/29 04:27:29;;;;;;;;;;;;;;;22.19;60.75;98408.50;2081593;28;19928;-48
2023/05/29 04:28:30;;;;;;;;;;;;;;;22.19;60.82;98411.19;2086883;28;19921;-50
2023/05/29 04:29:32;;;;;;;;;;;;;;;22.19;60.68;98408.50;2088115;28;20008;-46
2023/05/29 04:30:34;;;;;;;;;;;;;;;22.21;60.64;98406.41;2086333;28;20002;-45
2023/05/29 04:31:36;;;;;;;;;;;;;;;22.21;60.57;98409.09;2086373;28;19951;-46
2023/05/29 04:32:37;;;;;;;;;;;;;;;22.20;60.89;98410.13;2083859;28;19928;-48
2023/05/29 04:33:38;;;;;;;;;;;;;;;22.22;60.72;98416.13;2085948;28;19950;-47
2023/05/29 04:34:38;;;;;;;;;;;;;;;22.21;60.70;98411.81;2089479;28;20574;-45
2023/05/29 04:35:42;;;;;;;;;;;;;;;22.23;60.53;98415.91;2087346;28;19925;-47
2023/05/29 04:36:43;;;;;;;;;;;;;;;22.22;60.68;98416.94;2084719;28;20370;-47
2023/05/29 04:37:45;;;;;;;;;;;;;;;22.21;60.72;98417.19;2088584;28;19928;-45
2023/05/29 04:38:47;;;;;;;;;;;;;;;22.22;60.74;98416.13;2087468;28;20450;-46
2023/05/29 04:39:51;;;;;;;;;;;;;;;22.21;60.72;98415.31;2082053;28;21142;-45
2023/05/29 04:40:52;;;;;;;;;;;;;;;22.22;60.78;98418.84;2085133;28;19936;-49
2023/05/29 04:41:53;;;;;;;;;;;;;;;22.20;60.68;98415.53;2083381;28;20365;-50
2023/05/29 04:42:54;;;;;;;;;;;;;;;22.19;60.77;98419.31;2085033;28;19975;-49
2023/05/29 04:43:56;;;;;;;;;;;;;;;22.19;60.60;98422.00;2088055;28;19940;-48
2023/05/29 04:44:56;;;;;;;;;;;;;;;22.21;60.67;98430.72;2088003;28;20009;-47
2023/05/29 04:45:59;;;;;;;;;;;;;;;22.19;60.84;98424.72;2086818;28;19931;-48
2023/05/29 04:47:02;;;;;;;;;;;;;;;22.20;60.95;98426.34;2085155;28;20913;-46
2023/05/29 04:48:04;;;;;;;;;;;;;;;22.21;60.65;98425.31;2087336;28;19994;-48
2023/05/29 04:49:04;;;;;;;;;;;;;;;22.19;60.68;98432.81;2088069;28;19924;-47
2023/05/29 04:50:06;;;;;;;;;;;;;;;22.18;60.74;98432.00;2087522;28;20484;-46
2023/05/29 04:51:10;;;;;;;;;;;;;;;22.19;60.63;98432.81;2084879;28;19932;-48
2023/05/29 04:52:12;;;;;;;;;;;;;;;22.19;60.66;98432.81;2084797;28;21010;-46
2023/05/29 04:53:12;;;;;;;;;;;;;;;22.20;60.59;98434.44;2081623;28;19929;-47
2023/05/29 04:54:14;;;;;;;;;;;;;;;22.24;60.60;98441.03;2084303;28;19924;-46
2023/05/29 04:55:14;;;;;;;;;;;;;;;22.20;60.65;98429.03;2082400;28;19928;-46
2023/05/29 04:56:15;;;;;;;;;;;;;;;22.19;60.60;98430.94;2079401;28;20698;-45
2023/05/29 04:57:16;;;;;;;;;;;;;;;22.20;60.81;98431.75;2080508;28;20373;-48
2023/05/29 04:58:17;;;;;;;;;;;;;;;22.19;60.76;98432.81;2078460;28;19928;-45
2023/05/29 04:59:18;;;;;;;;;;;;;;;22.20;60.61;98437.97;2083392;28;19973;-44
2023/05/29 05:00:20;;;;;;;;;;;;;;;22.21;60.89;98431.53;2084371;28;19932;-46
2023/05/29 05:01:23;;;;;;;;;;;;;;;22.20;60.65;98429.84;2081853;28;19973;-46
2023/05/29 05:02:23;;;;;;;;;;;;;;;22.19;60.72;98430.94;2081196;28;19932;-46
2023/05/29 05:03:25;;;;;;;;;;;;;;;22.19;60.90;98430.09;2083990;28;20365;-46
2023/05/29 05:04:25;;;;;;;;;;;;;;;22.18;60.61;98433.88;2081328;28;19935;-46
2023/05/29 05:05:27;;;;;;;;;;;;;;;22.20;60.60;98434.44;2081452;28;20054;-44
2023/05/29 05:06:28;;;;;;;;;;;;;;;22.19;60.71;98433.63;2084812;28;19969;-45
2023/05/29 05:07:30;;;;;;;;;;;;;;;22.18;60.56;98434.69;2083808;28;20326;-46
2023/05/29 05:08:30;;;;;;;;;;;;;;;22.19;60.67;98438.22;2086636;28;19985;-46
2023/05/29 05:09:32;;;;;;;;;;;;;;;22.18;60.64;98436.56;2081662;28;19924;-46
2023/05/29 05:10:32;;;;;;;;;;;;;;;22.17;60.83;98424.06;2080363;28;20063;-47
2023/05/29 05:11:33;;;;;;;;;;;;;;;22.17;60.82;98433.00;2080920;28;20713;-48
2023/05/29 05:12:34;;;;;;;;;;;;;;;22.18;60.69;98431.19;2083238;28;19928;-46
2023/05/29 05:13:35;;;;;;;;;;;;;;;22.17;60.77;98438.41;2085085;28;19920;-49
2023/05/29 05:14:36;;;;;;;;;;;;;;;22.18;60.60;98428.47;2085455;28;21695;-46
2023/05/29 05:15:37;;;;;;;;;;;;;;;22.17;60.75;98434.88;2082696;28;20010;-46
2023/05/29 05:16:39;;;;;;;;;;;;;;;22.18;60.63;98432.00;2085181;28;19976;-44
2023/05/29 05:17:41;;;;;;;;;;;;;;;22.19;60.60;98439.03;2073971;28;20015;-48
2023/05/29 05:18:41;;;;;;;;;;;;;;;22.18;60.66;98437.41;2083016;28;20375;-48
2023/05/29 05:19:43;;;;;;;;;;;;;;;22.20;60.73;98439.84;2085901;28;19931;-47
2023/05/29 05:20:43;;;;;;;;;;;;;;;22.18;60.73;98433.88;2083423;28;21132;-46